createdAt,value
2023-03-22T00:01:21.986Z,101410.81
2023-03-22T00:03:50.729Z,101417.19
2023-03-22T00:06:18.064Z,101410.28
2023-03-22T00:08:45.895Z,101410.53
2023-03-22T00:11:13.193Z,101412.25
2023-03-22T00:13:43.065Z,101404.19
2023-03-22T00:16:11.215Z,101401.50
2023-03-22T00:18:39.830Z,101403.44
2023-03-22T00:21:16.072Z,101406.38
2023-03-22T00:23:43.622Z,101398.69
2023-03-22T00:26:12.479Z,101400.50
2023-03-22T00:28:39.816Z,101405.03
2023-03-22T00:31:07.162Z,101401.59
2023-03-22T00:33:34.237Z,101395.41
2023-03-22T00:36:07.333Z,101393.19
2023-03-22T00:38:42.432Z,101401.22
2023-03-22T00:41:16.456Z,101398.66
2023-03-22T00:43:46.148Z,101398.66
2023-03-22T00:46:14.592Z,101389.25
2023-03-22T00:48:41.785Z,101389.50
2023-03-22T00:51:10.127Z,101383.28
2023-03-22T00:53:41.846Z,101383.38
2023-03-22T00:56:14.335Z,101380.84
2023-03-22T00:59:17.052Z,101370.47
2023-03-22T01:01:44.285Z,101364.09
2023-03-22T01:04:18.105Z,101363.38
2023-03-22T01:06:47.392Z,101370.47
2023-03-22T01:09:15.399Z,101359.97
2023-03-22T01:11:43.890Z,101352.78
2023-03-22T01:14:14.046Z,101343.88
2023-03-22T01:16:41.235Z,101344.97
2023-03-22T01:19:08.814Z,101345.84
2023-03-22T01:21:36.565Z,101340.06
2023-03-22T01:24:03.754Z,101338.50
2023-03-22T01:26:31.363Z,101347.50
2023-03-22T01:28:58.511Z,101343.09
2023-03-22T01:31:25.799Z,101344.81
2023-03-22T01:33:52.747Z,101341.63
2023-03-22T01:36:22.193Z,101338.00
2023-03-22T01:38:49.142Z,101336.28
2023-03-22T01:41:17.476Z,101334.81
2023-03-22T01:43:45.478Z,101333.31
2023-03-22T01:46:13.197Z,101335.97
2023-03-22T01:48:46.311Z,101329.91
2023-03-22T01:51:27.799Z,101321.13
2023-03-22T01:54:10.897Z,101330.16
2023-03-22T01:56:42.678Z,101318.69
2023-03-22T01:59:16.264Z,101311.50
2023-03-22T02:02:03.753Z,101312.56
2023-03-22T02:04:36.880Z,101311.72
2023-03-22T02:07:10.236Z,101318.16
2023-03-22T02:09:42.449Z,101314.75
2023-03-22T02:12:34.380Z,101312.06
2023-03-22T02:15:17.043Z,101305.13
2023-03-22T02:19:01.378Z,101299.88
2023-03-22T02:22:26.066Z,101298.66
2023-03-22T02:25:20.816Z,101290.59
2023-03-22T02:28:15.857Z,101281.81
2023-03-22T02:30:42.716Z,101280.34
2023-03-22T02:33:32.021Z,101280.09
2023-03-22T02:36:19.162Z,101275.75
2023-03-22T02:39:12.169Z,101274.13
2023-03-22T02:42:25.747Z,101272.41
2023-03-22T02:45:06.468Z,101266.34
2023-03-22T02:47:58.855Z,101262.91
2023-03-22T02:50:50.637Z,101264.72
2023-03-22T02:53:26.468Z,101261.34
2023-03-22T02:56:05.923Z,101259.63
2023-03-22T02:58:45.747Z,101256.09
2023-03-22T03:01:23.808Z,101259.88
2023-03-22T03:03:55.416Z,101259.31
2023-03-22T03:06:25.920Z,101268.06
2023-03-22T03:08:54.701Z,101275.38
2023-03-22T03:11:21.685Z,101273.78
2023-03-22T03:13:51.218Z,101268.66
2023-03-22T03:16:21.877Z,101267.81
2023-03-22T03:19:00.839Z,101270.47
2023-03-22T03:21:51.970Z,101266.09
2023-03-22T03:24:34.871Z,101260.97
2023-03-22T03:27:10.069Z,101256.81
2023-03-22T03:30:16.911Z,101256.91
2023-03-22T03:32:59.395Z,101260.81
2023-03-22T03:35:32.638Z,101256.31
2023-03-22T03:38:08.868Z,101261.00
2023-03-22T03:40:44.385Z,101260.16
2023-03-22T03:43:12.501Z,101251.41
2023-03-22T03:45:40.574Z,101255.03
2023-03-22T03:48:23.860Z,101251.63
2023-03-22T03:50:53.572Z,101246.50
2023-03-22T03:53:20.766Z,101242.09
2023-03-22T03:55:47.715Z,101243.09
2023-03-22T03:58:18.100Z,101241.38
2023-03-22T04:00:47.932Z,101243.28
2023-03-22T04:03:21.000Z,101243.53
2023-03-22T04:06:14.036Z,101237.31
2023-03-22T04:08:45.997Z,101233.03
2023-03-22T04:11:15.854Z,101237.56
2023-03-22T04:13:44.674Z,101234.22
2023-03-22T04:16:16.555Z,101220.00
2023-03-22T04:18:43.567Z,101227.91
2023-03-22T04:21:12.278Z,101233.38
2023-03-22T04:24:00.300Z,101231.91
2023-03-22T04:26:30.038Z,101237.38
2023-03-22T04:29:15.327Z,101241.00
2023-03-22T04:31:47.178Z,101242.94
2023-03-22T04:34:19.744Z,101245.59
2023-03-22T04:37:02.649Z,101241.44
2023-03-22T04:39:34.851Z,101237.91
2023-03-22T04:42:25.668Z,101240.94
2023-03-22T04:45:04.265Z,101234.63
2023-03-22T04:47:32.212Z,101238.25
2023-03-22T04:50:00.308Z,101234.63
2023-03-22T04:52:30.584Z,101234.84
2023-03-22T04:54:57.566Z,101241.88
2023-03-22T04:57:24.880Z,101237.63
2023-03-22T04:59:52.485Z,101237.84
2023-03-22T05:02:19.823Z,101235.50
2023-03-22T05:04:48.354Z,101240.84
2023-03-22T05:07:28.715Z,101241.84
2023-03-22T05:09:58.640Z,101232.09
2023-03-22T05:12:25.862Z,101232.28
2023-03-22T05:15:06.854Z,101226.94
2023-03-22T05:17:37.698Z,101246.84
2023-03-22T05:20:10.392Z,101235.00
2023-03-22T05:22:41.113Z,101242.16
2023-03-22T05:25:11.362Z,101243.25
2023-03-22T05:27:43.641Z,101240.69
2023-03-22T05:30:34.113Z,101247.84
2023-03-22T05:33:08.155Z,101249.66
2023-03-22T05:35:41.939Z,101244.09
2023-03-22T05:38:10.810Z,101238.00
2023-03-22T05:40:42.127Z,101242.72
2023-03-22T05:43:09.072Z,101243.91
2023-03-22T05:45:37.554Z,101242.19
2023-03-22T05:48:12.740Z,101247.72
2023-03-22T05:50:40.995Z,101238.13
2023-03-22T05:53:08.730Z,101238.88
2023-03-22T05:55:50.237Z,101247.63
2023-03-22T05:58:19.298Z,101248.41
2023-03-22T06:00:51.566Z,101246.97
2023-03-22T06:03:18.573Z,101241.50
2023-03-22T06:05:54.950Z,101243.94
2023-03-22T06:08:35.644Z,101245.94
2023-03-22T06:11:02.905Z,101244.31
2023-03-22T06:13:30.108Z,101243.13
2023-03-22T06:16:01.502Z,101248.97
2023-03-22T06:18:29.694Z,101251.84
2023-03-22T06:21:03.148Z,101247.88
2023-03-22T06:23:30.325Z,101251.09
2023-03-22T06:25:57.270Z,101243.44
2023-03-22T06:28:26.668Z,101254.78
2023-03-22T06:30:54.885Z,101263.06
2023-03-22T06:33:31.612Z,101262.81
2023-03-22T06:36:09.361Z,101257.38
2023-03-22T06:38:46.379Z,101266.00
2023-03-22T06:41:13.493Z,101262.38
2023-03-22T06:43:40.471Z,101259.78
2023-03-22T06:46:22.091Z,101268.50
2023-03-22T06:48:58.214Z,101267.53
2023-03-22T06:51:25.488Z,101266.72
2023-03-22T06:53:53.326Z,101254.84
2023-03-22T06:56:20.689Z,101268.75
2023-03-22T06:58:52.074Z,101266.16
2023-03-22T07:01:19.626Z,101265.66
2023-03-22T07:03:46.800Z,101266.81
2023-03-22T07:06:16.097Z,101268.75
2023-03-22T07:08:46.832Z,101268.91
2023-03-22T07:11:17.962Z,101272.88
2023-03-22T07:13:55.829Z,101274.00
2023-03-22T07:16:23.157Z,101278.31
2023-03-22T07:18:53.399Z,101276.38
2023-03-22T07:21:20.314Z,101281.25
2023-03-22T07:23:52.077Z,101287.41
2023-03-22T07:26:21.686Z,101294.88
2023-03-22T07:28:50.030Z,101289.22
2023-03-22T07:31:18.388Z,101292.31
2023-03-22T07:34:00.995Z,101296.53
2023-03-22T07:36:31.139Z,101307.84
2023-03-22T07:38:58.332Z,101307.53
2023-03-22T07:41:30.763Z,101298.88
2023-03-22T07:44:30.145Z,101308.69
2023-03-22T07:47:15.721Z,101309.56
2023-03-22T07:49:56.756Z,101306.53
2023-03-22T07:52:27.163Z,101311.09
2023-03-22T07:54:54.228Z,101311.78
2023-03-22T07:57:21.099Z,101322.16
2023-03-22T07:59:54.518Z,101324.31
2023-03-22T08:02:23.827Z,101329.59
2023-03-22T08:04:56.494Z,101326.94
2023-03-22T08:07:51.542Z,101331.81
2023-03-22T08:10:18.593Z,101337.06
2023-03-22T08:12:45.575Z,101339.44
2023-03-22T08:15:20.796Z,101335.50
2023-03-22T08:17:49.945Z,101333.53
2023-03-22T08:20:28.744Z,101337.63
2023-03-22T08:23:01.153Z,101340.38
2023-03-22T08:26:03.330Z,101330.91
2023-03-22T08:28:32.286Z,101336.34
2023-03-22T08:30:59.465Z,101334.72
2023-03-22T08:33:26.578Z,101336.66
2023-03-22T08:36:04.814Z,101329.19
2023-03-22T08:38:32.478Z,101338.44
2023-03-22T08:40:59.482Z,101329.91
2023-03-22T08:43:26.490Z,101326.53
2023-03-22T08:45:53.953Z,101333.59
2023-03-22T08:48:21.263Z,101332.75
2023-03-22T08:51:03.131Z,101332.81
2023-03-22T08:53:40.510Z,101323.25
2023-03-22T08:56:27.450Z,101333.91
2023-03-22T08:59:09.935Z,101327.56
2023-03-22T09:01:51.988Z,101329.19
2023-03-22T09:04:19.425Z,101329.28
2023-03-22T09:06:47.115Z,101339.38
2023-03-22T09:09:15.245Z,101327.47
2023-03-22T09:11:44.906Z,101330.91
2023-03-22T09:14:11.956Z,101330.66
2023-03-22T09:16:39.067Z,101336.81
2023-03-22T09:19:06.833Z,101345.09
2023-03-22T09:21:34.579Z,101341.53
2023-03-22T09:24:14.219Z,101333.59
2023-03-22T09:26:47.521Z,101334.19
2023-03-22T09:29:17.629Z,101330.06
2023-03-22T09:31:48.896Z,101337.78
2023-03-22T09:34:22.886Z,101332.84
2023-03-22T09:36:49.920Z,101333.78
2023-03-22T09:39:20.243Z,101335.22
2023-03-22T09:41:58.275Z,101325.59
2023-03-22T09:44:40.357Z,101326.09
2023-03-22T09:47:33.190Z,101327.97
2023-03-22T09:50:16.043Z,101330.84
2023-03-22T09:52:44.015Z,101321.94
2023-03-22T09:55:37.479Z,101326.91
2023-03-22T09:58:21.353Z,101331.09
2023-03-22T10:00:58.473Z,101323.28
2023-03-22T10:03:53.131Z,101323.41
2023-03-22T10:06:25.578Z,101315.00
2023-03-22T10:09:16.885Z,101315.06
2023-03-22T10:11:52.541Z,101308.81
2023-03-22T10:14:41.485Z,101317.66
2023-03-22T10:17:18.677Z,101307.88
2023-03-22T10:20:08.779Z,101319.22
2023-03-22T10:22:41.034Z,101319.31
2023-03-22T10:25:09.651Z,101314.91
2023-03-22T10:27:37.660Z,101308.97
2023-03-22T10:30:19.897Z,101313.72
2023-03-22T10:32:58.163Z,101313.63
2023-03-22T10:35:26.245Z,101311.09
2023-03-22T10:37:56.565Z,101311.47
2023-03-22T10:40:29.886Z,101317.44
2023-03-22T10:43:01.933Z,101306.59
2023-03-22T10:45:32.096Z,101312.41
2023-03-22T10:48:11.905Z,101300.78
2023-03-22T10:50:42.323Z,101301.81
2023-03-22T10:53:23.201Z,101304.03
2023-03-22T10:55:50.443Z,101300.00
2023-03-22T10:58:19.971Z,101291.66
2023-03-22T11:00:52.304Z,101295.56
2023-03-22T11:03:51.607Z,101295.59
2023-03-22T11:06:25.996Z,101296.75
2023-03-22T11:08:57.356Z,101289.75
2023-03-22T11:11:27.193Z,101294.75
2023-03-22T11:14:06.462Z,101284.91
2023-03-22T11:16:44.425Z,101282.97
2023-03-22T11:19:18.470Z,101289.72
2023-03-22T11:21:45.829Z,101285.53
2023-03-22T11:24:15.766Z,101285.41
2023-03-22T11:26:45.037Z,101290.22
2023-03-22T11:29:18.659Z,101283.31
2023-03-22T11:31:59.229Z,101279.75
2023-03-22T11:34:29.368Z,101286.44
2023-03-22T11:37:00.452Z,101283.78
2023-03-22T11:39:29.834Z,101282.66
2023-03-22T11:42:00.266Z,101280.13
2023-03-22T11:44:32.025Z,101275.03
2023-03-22T11:47:01.223Z,101266.59
2023-03-22T11:49:59.996Z,101261.56
2023-03-22T11:52:28.065Z,101275.19
2023-03-22T11:54:56.340Z,101263.94
2023-03-22T11:57:26.606Z,101259.38
2023-03-22T12:00:21.551Z,101265.75
2023-03-22T12:02:54.983Z,101265.41
2023-03-22T12:05:27.365Z,101258.34
2023-03-22T12:08:38.936Z,101252.41
2023-03-22T12:11:11.178Z,101256.75
2023-03-22T12:13:53.477Z,101261.53
2023-03-22T12:16:28.479Z,101263.53
2023-03-22T12:19:22.696Z,101266.19
2023-03-22T12:21:51.675Z,101258.25
2023-03-22T12:24:36.756Z,101244.66
2023-03-22T12:27:27.374Z,101252.47
2023-03-22T12:30:04.331Z,101257.13
2023-03-22T12:32:38.814Z,101253.41
2023-03-22T12:35:17.318Z,101254.66
2023-03-22T12:37:50.873Z,101250.78
2023-03-22T12:40:26.250Z,101241.06
2023-03-22T12:43:08.261Z,101242.78
2023-03-22T12:45:42.756Z,101241.53
2023-03-22T12:48:21.940Z,101234.78
2023-03-22T12:50:56.096Z,101234.22
2023-03-22T12:53:28.206Z,101224.88
2023-03-22T12:55:56.319Z,101215.88
2023-03-22T12:58:26.284Z,101215.31
2023-03-22T13:00:58.745Z,101221.25
2023-03-22T13:03:38.713Z,101214.34
2023-03-22T13:06:27.373Z,101215.56
2023-03-22T13:09:17.111Z,101210.41
2023-03-22T13:11:49.831Z,101199.56
2023-03-22T13:14:51.454Z,101204.31
2023-03-22T13:17:24.890Z,101193.97
2023-03-22T13:20:23.807Z,101198.22
2023-03-22T13:22:53.210Z,101189.94
2023-03-22T13:25:40.015Z,101189.78
2023-03-22T13:28:28.300Z,101188.09
2023-03-22T13:30:58.422Z,101178.44
2023-03-22T13:33:29.880Z,101175.88
2023-03-22T13:36:01.533Z,101181.66
2023-03-22T13:38:42.853Z,101173.69
2023-03-22T13:41:24.653Z,101172.53
2023-03-22T13:43:54.815Z,101173.56
2023-03-22T13:46:21.816Z,101167.84
2023-03-22T13:48:49.317Z,101161.91
2023-03-22T13:51:23.037Z,101168.00
2023-03-22T13:54:16.597Z,101159.38
2023-03-22T13:57:01.564Z,101158.69
2023-03-22T13:59:29.911Z,101146.50
2023-03-22T14:02:00.696Z,101146.69
2023-03-22T14:04:42.729Z,101143.28
2023-03-22T14:07:40.717Z,101140.72
2023-03-22T14:10:33.089Z,101146.50
2023-03-22T14:13:06.488Z,101138.53
2023-03-22T14:15:40.634Z,101129.72
2023-03-22T14:18:31.821Z,101124.47
2023-03-22T14:21:02.195Z,101119.03
